sensor_id;sensor_type;location;lat;lon;timestamp;temperature;humidity
4215;DHT22;2121;48.062;7.850;2022-07-29T00:00:43;18.80;99.90
4215;DHT22;2121;48.062;7.850;2022-07-29T00:03:12;18.70;99.90
4215;DHT22;2121;48.062;7.850;2022-07-29T00:05:39;18.70;99.90
4215;DHT22;2121;48.062;7.850;2022-07-29T00:08:07;18.60;99.90
4215;DHT22;2121;48.062;7.850;2022-07-29T00:10:33;18.60;99.90
4215;DHT22;2121;48.062;7.850;2022-07-29T00:13:00;18.60;99.90
4215;DHT22;2121;48.062;7.850;2022-07-29T00:15:25;18.50;99.90
4215;DHT22;2121;48.062;7.850;2022-07-29T00:17:51;18.40;99.90
4215;DHT22;2121;48.062;7.850;2022-07-29T00:20:17;18.30;99.90
4215;DHT22;2121;48.062;7.850;2022-07-29T00:22:43;18.20;99.90
4215;DHT22;2121;48.062;7.850;2022-07-29T00:25:09;18.10;99.90
4215;DHT22;2121;48.062;7.850;2022-07-29T00:27:35;18.00;99.90
4215;DHT22;2121;48.062;7.850;2022-07-29T00:30:03;18.10;99.90
4215;DHT22;2121;48.062;7.850;2022-07-29T00:32:29;18.10;99.90
4215;DHT22;2121;48.062;7.850;2022-07-29T00:34:55;18.20;99.90
4215;DHT22;2121;48.062;7.850;2022-07-29T00:37:39;18.30;99.90
4215;DHT22;2121;48.062;7.850;2022-07-29T00:40:06;18.30;99.90
4215;DHT22;2121;48.062;7.850;2022-07-29T00:42:44;18.20;99.90
4215;DHT22;2121;48.062;7.850;2022-07-29T00:45:11;18.00;99.90
4215;DHT22;2121;48.062;7.850;2022-07-29T00:47:38;17.90;99.90
4215;DHT22;2121;48.062;7.850;2022-07-29T00:50:05;17.90;99.90
4215;DHT22;2121;48.062;7.850;2022-07-29T00:52:33;17.90;99.90
4215;DHT22;2121;48.062;7.850;2022-07-29T00:55:00;17.80;99.90
4215;DHT22;2121;48.062;7.850;2022-07-29T00:57:26;17.90;99.90
4215;DHT22;2121;48.062;7.850;2022-07-29T00:59:52;18.00;99.90
4215;DHT22;2121;48.062;7.850;2022-07-29T01:02:17;18.10;99.90
4215;DHT22;2121;48.062;7.850;2022-07-29T01:04:43;18.00;99.90
4215;DHT22;2121;48.062;7.850;2022-07-29T01:07:10;18.00;99.90
4215;DHT22;2121;48.062;7.850;2022-07-29T01:09:37;17.90;99.90
4215;DHT22;2121;48.062;7.850;2022-07-29T01:12:04;17.80;99.90
4215;DHT22;2121;48.062;7.850;2022-07-29T01:14:31;17.70;99.90
4215;DHT22;2121;48.062;7.850;2022-07-29T01:17:14;17.60;99.90
4215;DHT22;2121;48.062;7.850;2022-07-29T01:19:58;17.50;99.90
4215;DHT22;2121;48.062;7.850;2022-07-29T01:32:13;17.40;99.90
4215;DHT22;2121;48.062;7.850;2022-07-29T01:34:50;17.40;99.90
4215;DHT22;2121;48.062;7.850;2022-07-29T01:39:49;17.20;99.90
4215;DHT22;2121;48.062;7.850;2022-07-29T01:44:59;17.20;99.90
4215;DHT22;2121;48.062;7.850;2022-07-29T01:47:43;17.20;99.90
4215;DHT22;2121;48.062;7.850;2022-07-29T01:50:16;17.20;99.90
4215;DHT22;2121;48.062;7.850;2022-07-29T01:52:56;17.20;99.90
4215;DHT22;2121;48.062;7.850;2022-07-29T01:55:31;17.30;99.90
4215;DHT22;2121;48.062;7.850;2022-07-29T01:58:01;17.30;99.90
4215;DHT22;2121;48.062;7.850;2022-07-29T02:00:30;17.20;99.90
4215;DHT22;2121;48.062;7.850;2022-07-29T02:02:59;17.20;99.90
4215;DHT22;2121;48.062;7.850;2022-07-29T02:05:29;17.20;99.90
4215;DHT22;2121;48.062;7.850;2022-07-29T02:07:58;17.20;99.90
4215;DHT22;2121;48.062;7.850;2022-07-29T02:10:26;17.20;99.90
4215;DHT22;2121;48.062;7.850;2022-07-29T02:12:54;17.20;99.90
4215;DHT22;2121;48.062;7.850;2022-07-29T02:15:24;17.20;99.90
4215;DHT22;2121;48.062;7.850;2022-07-29T02:17:58;17.20;99.90
4215;DHT22;2121;48.062;7.850;2022-07-29T02:20:28;17.30;99.90
4215;DHT22;2121;48.062;7.850;2022-07-29T02:22:55;17.30;99.90
4215;DHT22;2121;48.062;7.850;2022-07-29T02:25:23;17.30;99.90
4215;DHT22;2121;48.062;7.850;2022-07-29T02:27:51;17.40;99.90
4215;DHT22;2121;48.062;7.850;2022-07-29T02:30:18;17.40;99.90
4215;DHT22;2121;48.062;7.850;2022-07-29T02:32:46;17.40;99.90
4215;DHT22;2121;48.062;7.850;2022-07-29T02:35:15;17.50;99.90
4215;DHT22;2121;48.062;7.850;2022-07-29T02:37:43;17.50;99.90
4215;DHT22;2121;48.062;7.850;2022-07-29T02:40:15;17.50;99.90
4215;DHT22;2121;48.062;7.850;2022-07-29T02:42:42;17.60;99.90
4215;DHT22;2121;48.062;7.850;2022-07-29T02:45:10;17.60;99.90
4215;DHT22;2121;48.062;7.850;2022-07-29T02:47:43;17.60;99.90
4215;DHT22;2121;48.062;7.850;2022-07-29T02:50:16;17.50;99.90
4215;DHT22;2121;48.062;7.850;2022-07-29T02:52:51;17.40;99.90
4215;DHT22;2121;48.062;7.850;2022-07-29T02:55:40;17.50;99.90
4215;DHT22;2121;48.062;7.850;2022-07-29T03:00:49;17.30;99.90
4215;DHT22;2121;48.062;7.850;2022-07-29T03:03:18;17.20;99.90
4215;DHT22;2121;48.062;7.850;2022-07-29T03:05:44;17.10;99.90
4215;DHT22;2121;48.062;7.850;2022-07-29T03:08:11;17.10;99.90
4215;DHT22;2121;48.062;7.850;2022-07-29T03:10:39;17.00;99.90
4215;DHT22;2121;48.062;7.850;2022-07-29T03:13:09;16.90;99.90
4215;DHT22;2121;48.062;7.850;2022-07-29T03:15:36;16.90;99.90
4215;DHT22;2121;48.062;7.850;2022-07-29T03:18:02;16.90;99.90
4215;DHT22;2121;48.062;7.850;2022-07-29T03:20:29;16.90;99.90
4215;DHT22;2121;48.062;7.850;2022-07-29T03:22:55;17.00;99.90
4215;DHT22;2121;48.062;7.850;2022-07-29T03:25:20;17.10;99.90
4215;DHT22;2121;48.062;7.850;2022-07-29T03:27:47;17.10;99.90
4215;DHT22;2121;48.062;7.850;2022-07-29T03:30:14;17.10;99.90
4215;DHT22;2121;48.062;7.850;2022-07-29T03:32:41;17.10;99.90
4215;DHT22;2121;48.062;7.850;2022-07-29T03:35:07;17.10;99.90
4215;DHT22;2121;48.062;7.850;2022-07-29T03:37:34;17.10;99.90
4215;DHT22;2121;48.062;7.850;2022-07-29T03:40:03;17.10;99.90
4215;DHT22;2121;48.062;7.850;2022-07-29T03:42:32;17.10;99.90
4215;DHT22;2121;48.062;7.850;2022-07-29T03:45:03;17.10;99.90
4215;DHT22;2121;48.062;7.850;2022-07-29T03:47:33;17.10;99.90
4215;DHT22;2121;48.062;7.850;2022-07-29T03:50:04;17.10;99.90
4215;DHT22;2121;48.062;7.850;2022-07-29T03:52:31;17.00;99.90
4215;DHT22;2121;48.062;7.850;2022-07-29T03:54:58;17.00;99.90
4215;DHT22;2121;48.062;7.850;2022-07-29T03:57:25;17.00;99.90
4215;DHT22;2121;48.062;7.850;2022-07-29T03:59:53;17.10;99.90
4215;DHT22;2121;48.062;7.850;2022-07-29T04:02:20;17.10;99.90
4215;DHT22;2121;48.062;7.850;2022-07-29T04:04:46;17.10;99.90
4215;DHT22;2121;48.062;7.850;2022-07-29T04:07:13;17.10;99.90
4215;DHT22;2121;48.062;7.850;2022-07-29T04:09:40;17.20;99.90
4215;DHT22;2121;48.062;7.850;2022-07-29T04:12:06;17.20;99.90
4215;DHT22;2121;48.062;7.850;2022-07-29T04:14:33;17.30;99.90
4215;DHT22;2121;48.062;7.850;2022-07-29T04:17:00;17.30;99.90
4215;DHT22;2121;48.062;7.850;2022-07-29T04:19:26;17.40;99.90
4215;DHT22;2121;48.062;7.850;2022-07-29T04:21:52;17.40;99.90
4215;DHT22;2121;48.062;7.850;2022-07-29T04:24:18;17.40;99.90
4215;DHT22;2121;48.062;7.850;2022-07-29T04:26:46;17.50;99.90
4215;DHT22;2121;48.062;7.850;2022-07-29T04:29:12;17.40;99.90
4215;DHT22;2121;48.062;7.850;2022-07-29T04:31:40;17.50;99.90
4215;DHT22;2121;48.062;7.850;2022-07-29T04:34:06;17.60;99.90
4215;DHT22;2121;48.062;7.850;2022-07-29T04:36:32;17.60;99.90
4215;DHT22;2121;48.062;7.850;2022-07-29T04:38:58;17.60;99.90
4215;DHT22;2121;48.062;7.850;2022-07-29T04:41:24;17.70;99.90
4215;DHT22;2121;48.062;7.850;2022-07-29T04:43:50;17.70;99.90
4215;DHT22;2121;48.062;7.850;2022-07-29T04:46:16;17.80;99.90
4215;DHT22;2121;48.062;7.850;2022-07-29T04:48:41;17.80;99.90
4215;DHT22;2121;48.062;7.850;2022-07-29T04:51:07;17.80;99.90
4215;DHT22;2121;48.062;7.850;2022-07-29T04:53:33;17.90;99.90
4215;DHT22;2121;48.062;7.850;2022-07-29T04:55:59;17.90;99.90
4215;DHT22;2121;48.062;7.850;2022-07-29T04:58:24;17.90;99.90
4215;DHT22;2121;48.062;7.850;2022-07-29T05:00:50;17.90;99.90
4215;DHT22;2121;48.062;7.850;2022-07-29T05:03:17;18.00;99.90
4215;DHT22;2121;48.062;7.850;2022-07-29T05:05:42;18.20;99.90
4215;DHT22;2121;48.062;7.850;2022-07-29T05:08:08;18.20;99.90
4215;DHT22;2121;48.062;7.850;2022-07-29T05:10:34;18.30;99.90
4215;DHT22;2121;48.062;7.850;2022-07-29T05:13:07;18.40;99.90
4215;DHT22;2121;48.062;7.850;2022-07-29T05:15:36;18.50;99.90
4215;DHT22;2121;48.062;7.850;2022-07-29T05:18:03;18.50;99.90
4215;DHT22;2121;48.062;7.850;2022-07-29T05:20:30;18.60;99.90
4215;DHT22;2121;48.062;7.850;2022-07-29T05:23:00;18.70;99.90
4215;DHT22;2121;48.062;7.850;2022-07-29T05:25:27;18.80;99.90
4215;DHT22;2121;48.062;7.850;2022-07-29T05:27:54;18.90;99.90
4215;DHT22;2121;48.062;7.850;2022-07-29T05:30:20;19.00;99.90
4215;DHT22;2121;48.062;7.850;2022-07-29T05:32:46;19.20;99.90
4215;DHT22;2121;48.062;7.850;2022-07-29T05:35:13;19.30;99.90
4215;DHT22;2121;48.062;7.850;2022-07-29T05:37:39;19.50;99.90
4215;DHT22;2121;48.062;7.850;2022-07-29T05:40:05;19.60;99.90
4215;DHT22;2121;48.062;7.850;2022-07-29T05:42:31;19.70;99.90
4215;DHT22;2121;48.062;7.850;2022-07-29T05:44:57;19.80;99.90
4215;DHT22;2121;48.062;7.850;2022-07-29T05:47:23;19.70;99.90
4215;DHT22;2121;48.062;7.850;2022-07-29T05:49:49;19.80;99.90
4215;DHT22;2121;48.062;7.850;2022-07-29T05:52:16;19.80;99.90
4215;DHT22;2121;48.062;7.850;2022-07-29T05:54:42;19.90;99.90
4215;DHT22;2121;48.062;7.850;2022-07-29T05:57:14;20.00;99.90
4215;DHT22;2121;48.062;7.850;2022-07-29T05:59:41;20.00;99.90
4215;DHT22;2121;48.062;7.850;2022-07-29T06:02:07;20.10;99.90
4215;DHT22;2121;48.062;7.850;2022-07-29T06:04:33;20.00;99.90
4215;DHT22;2121;48.062;7.850;2022-07-29T06:06:59;20.00;99.90
4215;DHT22;2121;48.062;7.850;2022-07-29T06:09:24;20.00;99.90
4215;DHT22;2121;48.062;7.850;2022-07-29T06:11:51;20.00;99.90
4215;DHT22;2121;48.062;7.850;2022-07-29T06:14:18;20.10;99.90
4215;DHT22;2121;48.062;7.850;2022-07-29T06:16:44;20.20;99.90
4215;DHT22;2121;48.062;7.850;2022-07-29T06:19:10;20.40;99.90
4215;DHT22;2121;48.062;7.850;2022-07-29T06:21:35;20.50;99.90
4215;DHT22;2121;48.062;7.850;2022-07-29T06:24:01;20.70;99.90
4215;DHT22;2121;48.062;7.850;2022-07-29T06:26:27;20.90;99.90
4215;DHT22;2121;48.062;7.850;2022-07-29T06:28:53;21.00;99.90
4215;DHT22;2121;48.062;7.850;2022-07-29T06:31:19;21.20;99.90
4215;DHT22;2121;48.062;7.850;2022-07-29T06:33:44;21.50;99.90
4215;DHT22;2121;48.062;7.850;2022-07-29T06:36:10;21.80;99.90
4215;DHT22;2121;48.062;7.850;2022-07-29T06:38:36;22.00;99.90
4215;DHT22;2121;48.062;7.850;2022-07-29T06:41:03;22.10;99.90
4215;DHT22;2121;48.062;7.850;2022-07-29T06:46:00;22.20;99.90
4215;DHT22;2121;48.062;7.850;2022-07-29T06:48:27;22.10;99.90
4215;DHT22;2121;48.062;7.850;2022-07-29T06:50:53;22.00;99.90
4215;DHT22;2121;48.062;7.850;2022-07-29T06:53:19;21.90;99.90
4215;DHT22;2121;48.062;7.850;2022-07-29T06:55:45;21.80;99.90
4215;DHT22;2121;48.062;7.850;2022-07-29T06:58:11;21.80;99.90
4215;DHT22;2121;48.062;7.850;2022-07-29T07:00:39;21.80;99.90
4215;DHT22;2121;48.062;7.850;2022-07-29T07:03:05;21.90;99.90
4215;DHT22;2121;48.062;7.850;2022-07-29T07:05:31;22.20;99.90
4215;DHT22;2121;48.062;7.850;2022-07-29T07:07:56;22.40;99.90
4215;DHT22;2121;48.062;7.850;2022-07-29T07:10:22;22.50;99.90
4215;DHT22;2121;48.062;7.850;2022-07-29T07:12:48;22.50;99.90
4215;DHT22;2121;48.062;7.850;2022-07-29T07:15:13;22.50;99.90
4215;DHT22;2121;48.062;7.850;2022-07-29T07:17:42;22.60;99.90
4215;DHT22;2121;48.062;7.850;2022-07-29T07:20:08;22.80;99.90
4215;DHT22;2121;48.062;7.850;2022-07-29T07:22:34;22.90;99.90
4215;DHT22;2121;48.062;7.850;2022-07-29T07:25:00;23.20;99.70
4215;DHT22;2121;48.062;7.850;2022-07-29T07:27:25;23.40;99.00
4215;DHT22;2121;48.062;7.850;2022-07-29T07:29:52;23.80;98.20
4215;DHT22;2121;48.062;7.850;2022-07-29T07:32:18;24.10;95.40
4215;DHT22;2121;48.062;7.850;2022-07-29T07:34:44;24.70;94.60
4215;DHT22;2121;48.062;7.850;2022-07-29T07:37:10;25.00;92.20
4215;DHT22;2121;48.062;7.850;2022-07-29T07:39:36;25.00;92.30
4215;DHT22;2121;48.062;7.850;2022-07-29T07:42:02;24.50;92.80
4215;DHT22;2121;48.062;7.850;2022-07-29T07:44:28;24.30;93.30
4215;DHT22;2121;48.062;7.850;2022-07-29T07:46:53;24.40;93.30
4215;DHT22;2121;48.062;7.850;2022-07-29T07:49:19;24.60;93.30
4215;DHT22;2121;48.062;7.850;2022-07-29T07:51:45;24.70;93.50
4215;DHT22;2121;48.062;7.850;2022-07-29T07:54:11;24.70;93.80
4215;DHT22;2121;48.062;7.850;2022-07-29T07:56:36;24.90;93.20
4215;DHT22;2121;48.062;7.850;2022-07-29T07:59:02;25.00;93.30
4215;DHT22;2121;48.062;7.850;2022-07-29T08:01:28;24.80;93.10
4215;DHT22;2121;48.062;7.850;2022-07-29T08:03:54;24.80;93.70
4215;DHT22;2121;48.062;7.850;2022-07-29T08:06:19;24.80;93.30
4215;DHT22;2121;48.062;7.850;2022-07-29T08:08:45;24.50;93.50
4215;DHT22;2121;48.062;7.850;2022-07-29T08:11:11;24.60;93.70
4215;DHT22;2121;48.062;7.850;2022-07-29T08:13:37;24.70;93.20
4215;DHT22;2121;48.062;7.850;2022-07-29T08:16:03;24.60;93.20
4215;DHT22;2121;48.062;7.850;2022-07-29T08:18:41;24.90;93.40
4215;DHT22;2121;48.062;7.850;2022-07-29T08:21:07;25.00;92.70
4215;DHT22;2121;48.062;7.850;2022-07-29T08:23:34;25.10;92.80
4215;DHT22;2121;48.062;7.850;2022-07-29T08:26:08;25.30;92.30
4215;DHT22;2121;48.062;7.850;2022-07-29T08:28:37;25.60;91.80
4215;DHT22;2121;48.062;7.850;2022-07-29T08:31:04;25.70;91.60
4215;DHT22;2121;48.062;7.850;2022-07-29T08:33:30;25.90;91.60
4215;DHT22;2121;48.062;7.850;2022-07-29T08:35:56;25.80;91.60
4215;DHT22;2121;48.062;7.850;2022-07-29T08:38:21;25.90;91.50
4215;DHT22;2121;48.062;7.850;2022-07-29T08:40:47;25.90;91.40
4215;DHT22;2121;48.062;7.850;2022-07-29T08:43:13;26.00;91.10
4215;DHT22;2121;48.062;7.850;2022-07-29T08:45:47;26.30;90.70
4215;DHT22;2121;48.062;7.850;2022-07-29T08:48:17;26.10;90.70
4215;DHT22;2121;48.062;7.850;2022-07-29T08:50:46;26.00;90.60
4215;DHT22;2121;48.062;7.850;2022-07-29T08:53:16;26.40;90.30
4215;DHT22;2121;48.062;7.850;2022-07-29T08:55:45;26.50;90.20
4215;DHT22;2121;48.062;7.850;2022-07-29T08:58:13;26.70;89.80
4215;DHT22;2121;48.062;7.850;2022-07-29T09:00:44;26.90;90.00
4215;DHT22;2121;48.062;7.850;2022-07-29T09:03:17;27.20;89.50
4215;DHT22;2121;48.062;7.850;2022-07-29T09:05:48;27.70;88.70
4215;DHT22;2121;48.062;7.850;2022-07-29T09:08:15;27.70;86.00
4215;DHT22;2121;48.062;7.850;2022-07-29T09:10:41;27.60;87.00
4215;DHT22;2121;48.062;7.850;2022-07-29T09:13:08;27.60;86.40
4215;DHT22;2121;48.062;7.850;2022-07-29T09:15:34;27.70;86.60
4215;DHT22;2121;48.062;7.850;2022-07-29T09:18:00;27.80;85.60
4215;DHT22;2121;48.062;7.850;2022-07-29T09:20:26;27.60;84.90
4215;DHT22;2121;48.062;7.850;2022-07-29T09:23:13;27.60;85.60
4215;DHT22;2121;48.062;7.850;2022-07-29T09:25:40;27.50;85.00
4215;DHT22;2121;48.062;7.850;2022-07-29T09:28:06;27.40;86.10
4215;DHT22;2121;48.062;7.850;2022-07-29T09:30:34;27.50;86.40
4215;DHT22;2121;48.062;7.850;2022-07-29T09:33:01;27.50;85.50
4215;DHT22;2121;48.062;7.850;2022-07-29T09:35:30;27.40;85.20
4215;DHT22;2121;48.062;7.850;2022-07-29T09:37:56;27.40;85.10
4215;DHT22;2121;48.062;7.850;2022-07-29T09:40:25;27.30;84.80
4215;DHT22;2121;48.062;7.850;2022-07-29T09:42:53;27.30;84.50
4215;DHT22;2121;48.062;7.850;2022-07-29T09:45:34;27.50;84.60
4215;DHT22;2121;48.062;7.850;2022-07-29T09:48:14;27.60;84.70
4215;DHT22;2121;48.062;7.850;2022-07-29T09:50:42;27.50;86.20
4215;DHT22;2121;48.062;7.850;2022-07-29T09:53:09;27.60;84.70
4215;DHT22;2121;48.062;7.850;2022-07-29T09:55:51;27.80;84.20
4215;DHT22;2121;48.062;7.850;2022-07-29T09:58:21;27.60;85.10
4215;DHT22;2121;48.062;7.850;2022-07-29T10:00:49;27.90;84.20
4215;DHT22;2121;48.062;7.850;2022-07-29T10:03:16;28.30;83.70
4215;DHT22;2121;48.062;7.850;2022-07-29T10:05:43;28.00;82.80
4215;DHT22;2121;48.062;7.850;2022-07-29T10:08:10;28.40;82.20
4215;DHT22;2121;48.062;7.850;2022-07-29T10:10:39;28.50;81.50
4215;DHT22;2121;48.062;7.850;2022-07-29T10:13:09;28.00;82.70
4215;DHT22;2121;48.062;7.850;2022-07-29T10:15:39;27.90;81.40
4215;DHT22;2121;48.062;7.850;2022-07-29T10:18:09;28.10;80.60
4215;DHT22;2121;48.062;7.850;2022-07-29T10:20:36;28.30;79.90
4215;DHT22;2121;48.062;7.850;2022-07-29T10:23:02;28.80;78.90
4215;DHT22;2121;48.062;7.850;2022-07-29T10:25:29;29.30;79.50
4215;DHT22;2121;48.062;7.850;2022-07-29T10:27:55;29.30;77.20
4215;DHT22;2121;48.062;7.850;2022-07-29T10:30:23;29.20;78.30
4215;DHT22;2121;48.062;7.850;2022-07-29T10:35:43;29.70;76.40
4215;DHT22;2121;48.062;7.850;2022-07-29T10:44:06;29.90;75.90
4215;DHT22;2121;48.062;7.850;2022-07-29T10:46:38;29.40;76.80
4215;DHT22;2121;48.062;7.850;2022-07-29T10:52:07;28.80;76.90
4215;DHT22;2121;48.062;7.850;2022-07-29T10:54:44;29.00;77.10
4215;DHT22;2121;48.062;7.850;2022-07-29T10:59:43;29.00;75.80
4215;DHT22;2121;48.062;7.850;2022-07-29T11:05:14;29.70;74.30
4215;DHT22;2121;48.062;7.850;2022-07-29T11:10:43;30.30;72.90
4215;DHT22;2121;48.062;7.850;2022-07-29T11:13:09;30.20;72.00
4215;DHT22;2121;48.062;7.850;2022-07-29T11:15:54;30.10;72.90
4215;DHT22;2121;48.062;7.850;2022-07-29T11:18:21;29.70;72.20
4215;DHT22;2121;48.062;7.850;2022-07-29T11:20:48;30.00;73.00
4215;DHT22;2121;48.062;7.850;2022-07-29T11:23:28;30.40;71.80
4215;DHT22;2121;48.062;7.850;2022-07-29T11:31:38;30.10;70.90
4215;DHT22;2121;48.062;7.850;2022-07-29T11:45:13;29.30;73.20
4215;DHT22;2121;48.062;7.850;2022-07-29T11:47:52;28.90;73.80
4215;DHT22;2121;48.062;7.850;2022-07-29T11:50:36;28.40;74.10
4215;DHT22;2121;48.062;7.850;2022-07-29T11:53:10;28.40;72.90
4215;DHT22;2121;48.062;7.850;2022-07-29T11:55:38;28.60;72.40
4215;DHT22;2121;48.062;7.850;2022-07-29T11:58:04;28.70;72.20
4215;DHT22;2121;48.062;7.850;2022-07-29T12:00:42;28.60;73.50
4215;DHT22;2121;48.062;7.850;2022-07-29T12:03:11;28.50;73.40
4215;DHT22;2121;48.062;7.850;2022-07-29T12:05:42;28.50;73.40
4215;DHT22;2121;48.062;7.850;2022-07-29T12:08:16;28.40;73.70
4215;DHT22;2121;48.062;7.850;2022-07-29T12:10:46;28.40;73.10
4215;DHT22;2121;48.062;7.850;2022-07-29T12:13:13;28.30;73.80
4215;DHT22;2121;48.062;7.850;2022-07-29T12:15:41;28.30;74.60
4215;DHT22;2121;48.062;7.850;2022-07-29T12:18:17;28.20;74.20
4215;DHT22;2121;48.062;7.850;2022-07-29T12:20:46;28.30;75.40
4215;DHT22;2121;48.062;7.850;2022-07-29T12:23:13;28.30;75.00
4215;DHT22;2121;48.062;7.850;2022-07-29T12:25:40;28.10;74.40
4215;DHT22;2121;48.062;7.850;2022-07-29T12:28:12;27.80;75.80
4215;DHT22;2121;48.062;7.850;2022-07-29T12:30:47;27.40;78.00
4215;DHT22;2121;48.062;7.850;2022-07-29T12:33:19;27.40;77.30
4215;DHT22;2121;48.062;7.850;2022-07-29T12:35:57;27.40;76.80
4215;DHT22;2121;48.062;7.850;2022-07-29T12:38:25;27.30;75.60
4215;DHT22;2121;48.062;7.850;2022-07-29T12:40:52;27.60;76.80
4215;DHT22;2121;48.062;7.850;2022-07-29T12:43:23;27.90;76.80
4215;DHT22;2121;48.062;7.850;2022-07-29T12:45:52;28.10;76.50
4215;DHT22;2121;48.062;7.850;2022-07-29T12:48:39;28.10;77.40
4215;DHT22;2121;48.062;7.850;2022-07-29T12:51:07;28.00;78.00
4215;DHT22;2121;48.062;7.850;2022-07-29T12:53:34;28.10;77.40
4215;DHT22;2121;48.062;7.850;2022-07-29T12:56:01;28.00;76.10
4215;DHT22;2121;48.062;7.850;2022-07-29T12:58:37;28.00;75.50
4215;DHT22;2121;48.062;7.850;2022-07-29T13:01:11;28.10;75.70
4215;DHT22;2121;48.062;7.850;2022-07-29T13:03:47;27.80;76.20
4215;DHT22;2121;48.062;7.850;2022-07-29T13:07:01;27.80;76.60
4215;DHT22;2121;48.062;7.850;2022-07-29T13:09:44;27.50;76.90
4215;DHT22;2121;48.062;7.850;2022-07-29T13:12:14;27.50;77.70
4215;DHT22;2121;48.062;7.850;2022-07-29T13:14:42;27.60;77.50
4215;DHT22;2121;48.062;7.850;2022-07-29T13:17:17;27.70;77.20
4215;DHT22;2121;48.062;7.850;2022-07-29T13:19:51;27.80;76.60
4215;DHT22;2121;48.062;7.850;2022-07-29T13:22:24;27.90;76.50
4215;DHT22;2121;48.062;7.850;2022-07-29T13:25:09;27.90;76.50
4215;DHT22;2121;48.062;7.850;2022-07-29T13:27:36;28.00;77.10
4215;DHT22;2121;48.062;7.850;2022-07-29T13:30:08;28.30;76.60
4215;DHT22;2121;48.062;7.850;2022-07-29T13:32:35;28.10;76.40
4215;DHT22;2121;48.062;7.850;2022-07-29T13:35:04;27.90;76.20
4215;DHT22;2121;48.062;7.850;2022-07-29T13:37:36;27.70;76.10
4215;DHT22;2121;48.062;7.850;2022-07-29T13:40:04;27.60;77.10
4215;DHT22;2121;48.062;7.850;2022-07-29T13:42:32;27.60;77.70
4215;DHT22;2121;48.062;7.850;2022-07-29T13:44:58;27.50;78.40
4215;DHT22;2121;48.062;7.850;2022-07-29T13:47:25;27.40;77.90
4215;DHT22;2121;48.062;7.850;2022-07-29T13:49:51;27.40;77.20
4215;DHT22;2121;48.062;7.850;2022-07-29T13:52:18;27.40;76.10
4215;DHT22;2121;48.062;7.850;2022-07-29T13:54:45;27.20;76.20
4215;DHT22;2121;48.062;7.850;2022-07-29T13:57:11;27.10;75.20
4215;DHT22;2121;48.062;7.850;2022-07-29T13:59:38;27.00;76.20
4215;DHT22;2121;48.062;7.850;2022-07-29T14:02:05;27.00;76.10
4215;DHT22;2121;48.062;7.850;2022-07-29T14:04:32;27.10;76.00
4215;DHT22;2121;48.062;7.850;2022-07-29T14:06:58;27.00;76.60
4215;DHT22;2121;48.062;7.850;2022-07-29T14:09:24;27.00;77.40
4215;DHT22;2121;48.062;7.850;2022-07-29T14:11:50;26.80;77.60
4215;DHT22;2121;48.062;7.850;2022-07-29T14:14:18;26.90;78.10
4215;DHT22;2121;48.062;7.850;2022-07-29T14:16:44;26.80;79.30
4215;DHT22;2121;48.062;7.850;2022-07-29T14:19:10;26.60;80.20
4215;DHT22;2121;48.062;7.850;2022-07-29T14:21:37;26.40;80.90
4215;DHT22;2121;48.062;7.850;2022-07-29T14:24:04;26.20;80.40
4215;DHT22;2121;48.062;7.850;2022-07-29T14:26:30;26.20;80.70
4215;DHT22;2121;48.062;7.850;2022-07-29T14:28:56;26.30;80.60
4215;DHT22;2121;48.062;7.850;2022-07-29T14:31:22;26.40;80.10
4215;DHT22;2121;48.062;7.850;2022-07-29T14:33:47;26.60;80.20
4215;DHT22;2121;48.062;7.850;2022-07-29T14:36:13;26.90;78.90
4215;DHT22;2121;48.062;7.850;2022-07-29T14:38:39;27.60;76.80
4215;DHT22;2121;48.062;7.850;2022-07-29T14:41:06;28.20;74.00
4215;DHT22;2121;48.062;7.850;2022-07-29T14:43:34;28.00;72.70
4215;DHT22;2121;48.062;7.850;2022-07-29T14:46:00;27.80;72.30
4215;DHT22;2121;48.062;7.850;2022-07-29T14:48:27;27.70;72.50
4215;DHT22;2121;48.062;7.850;2022-07-29T14:50:53;27.70;72.50
4215;DHT22;2121;48.062;7.850;2022-07-29T14:53:20;28.00;71.60
4215;DHT22;2121;48.062;7.850;2022-07-29T14:55:45;27.80;71.50
4215;DHT22;2121;48.062;7.850;2022-07-29T14:58:11;28.10;71.40
4215;DHT22;2121;48.062;7.850;2022-07-29T15:00:37;28.30;72.30
4215;DHT22;2121;48.062;7.850;2022-07-29T15:03:03;28.40;70.60
4215;DHT22;2121;48.062;7.850;2022-07-29T15:05:30;28.30;69.60
4215;DHT22;2121;48.062;7.850;2022-07-29T15:07:57;28.30;69.10
4215;DHT22;2121;48.062;7.850;2022-07-29T15:10:24;28.50;68.10
4215;DHT22;2121;48.062;7.850;2022-07-29T15:12:51;28.50;68.20
4215;DHT22;2121;48.062;7.850;2022-07-29T15:15:17;28.90;67.40
4215;DHT22;2121;48.062;7.850;2022-07-29T15:17:42;28.70;68.00
4215;DHT22;2121;48.062;7.850;2022-07-29T15:20:09;28.50;66.60
4215;DHT22;2121;48.062;7.850;2022-07-29T15:22:35;28.30;68.20
4215;DHT22;2121;48.062;7.850;2022-07-29T15:25:02;28.00;68.50
4215;DHT22;2121;48.062;7.850;2022-07-29T15:27:28;27.50;67.50
4215;DHT22;2121;48.062;7.850;2022-07-29T15:29:54;27.00;69.20
4215;DHT22;2121;48.062;7.850;2022-07-29T15:32:19;26.90;70.30
4215;DHT22;2121;48.062;7.850;2022-07-29T15:34:45;27.10;69.20
4215;DHT22;2121;48.062;7.850;2022-07-29T15:37:11;27.30;68.50
4215;DHT22;2121;48.062;7.850;2022-07-29T15:39:37;27.90;68.00
4215;DHT22;2121;48.062;7.850;2022-07-29T15:42:03;28.70;67.40
4215;DHT22;2121;48.062;7.850;2022-07-29T15:44:28;29.30;65.10
4215;DHT22;2121;48.062;7.850;2022-07-29T15:46:54;29.50;64.50
4215;DHT22;2121;48.062;7.850;2022-07-29T15:49:37;30.00;64.10
4215;DHT22;2121;48.062;7.850;2022-07-29T15:52:06;29.90;63.80
4215;DHT22;2121;48.062;7.850;2022-07-29T15:54:37;29.90;63.90
4215;DHT22;2121;48.062;7.850;2022-07-29T15:57:05;29.50;64.30
4215;DHT22;2121;48.062;7.850;2022-07-29T15:59:32;30.00;63.50
4215;DHT22;2121;48.062;7.850;2022-07-29T16:01:58;30.00;63.30
4215;DHT22;2121;48.062;7.850;2022-07-29T16:04:25;31.00;62.70
4215;DHT22;2121;48.062;7.850;2022-07-29T16:06:51;32.30;61.40
4215;DHT22;2121;48.062;7.850;2022-07-29T16:09:18;33.40;59.00
4215;DHT22;2121;48.062;7.850;2022-07-29T16:11:45;32.80;59.40
4215;DHT22;2121;48.062;7.850;2022-07-29T16:14:12;32.40;60.10
4215;DHT22;2121;48.062;7.850;2022-07-29T16:16:38;31.70;59.50
4215;DHT22;2121;48.062;7.850;2022-07-29T16:19:05;32.10;60.40
4215;DHT22;2121;48.062;7.850;2022-07-29T16:21:31;35.10;57.60
4215;DHT22;2121;48.062;7.850;2022-07-29T16:23:58;37.50;54.90
4215;DHT22;2121;48.062;7.850;2022-07-29T16:26:25;38.10;53.10
4215;DHT22;2121;48.062;7.850;2022-07-29T16:28:51;39.00;50.80
4215;DHT22;2121;48.062;7.850;2022-07-29T16:31:17;40.70;50.30
4215;DHT22;2121;48.062;7.850;2022-07-29T16:33:46;40.20;49.00
4215;DHT22;2121;48.062;7.850;2022-07-29T16:36:12;40.00;48.50
4215;DHT22;2121;48.062;7.850;2022-07-29T16:38:38;40.50;47.90
4215;DHT22;2121;48.062;7.850;2022-07-29T16:41:03;39.10;47.30
4215;DHT22;2121;48.062;7.850;2022-07-29T16:43:29;38.70;47.30
4215;DHT22;2121;48.062;7.850;2022-07-29T16:45:55;38.10;48.30
4215;DHT22;2121;48.062;7.850;2022-07-29T16:48:20;37.90;47.50
4215;DHT22;2121;48.062;7.850;2022-07-29T16:50:46;38.20;48.40
4215;DHT22;2121;48.062;7.850;2022-07-29T16:53:12;37.40;47.40
4215;DHT22;2121;48.062;7.850;2022-07-29T16:55:38;36.30;48.40
4215;DHT22;2121;48.062;7.850;2022-07-29T16:58:03;36.50;49.20
4215;DHT22;2121;48.062;7.850;2022-07-29T17:00:29;37.30;48.30
4215;DHT22;2121;48.062;7.850;2022-07-29T17:02:55;37.60;48.80
4215;DHT22;2121;48.062;7.850;2022-07-29T17:05:21;39.90;46.70